North Boulder Creek (79, 238, 626) Station Data

Red Flag Warning: No
Fire Weather Zone: 258
SDGE Region: Mountain Empire
Lat/Lon: 32.98/-116.663

Observations

Time Wind Speed/Gust Temp(F) RH Fuel Moist Fuel Temp(F) Dewpt(F) Tmax(F) Tmin(F) Accum Precip 10-min Precip SL Press(mb)
3/29 8:00am 192 2 G 5 60° 21% - - 19° 62.8° 55.9° - - -
3/29 7:50am 257 1 G 4 60° 19% - - 17° 62.8° 55.9° - - -
3/29 7:40am 260 6 G 12 60° 16% - - 15° 62.8° 55.9° - - -
3/29 7:30am 188 4 G 10 60° 16% - - 13° 62.8° 55.9° - - -
3/29 7:20am 240 1 G 3 60° 16% - - 13° 62.8° 55.9° - - -
3/29 7:10am 55 3 G 5 59° 16% - - 13° 62.8° 55.9° - - -
3/29 7:00am 60 2 G 7 59° 16% - - 13° 62.8° 55.9° - - -
3/29 6:50am 159 0 G 1 58° 16% - - 13° 62.8° 55.9° - - -
3/29 6:40am 196 1 G 3 60° 16% - - 13° 62.8° 55.9° - - -
3/29 6:30am 239 4 G 5 60° 15% - - 13° 62.8° 55.9° - - -
3/29 6:20am 277 3 G 5 60° 15% - - 13° 62.8° 55.9° - - -
3/29 6:10am 340 3 G 5 60° 16% - - 13° 62.8° 55.9° - - -
3/29 6:00am 28 3 G 9 60° 16% - - 13° 62.8° 55.9° - - -
3/29 5:50am 71 3 G 7 59° 17% - - 14° 62.8° 55.9° - - -
3/29 5:40am 215 3 G 7 60° 16% - - 14° 62.8° 55.9° - - -
3/29 5:30am 14 4 G 8 61° 15% - - 13° 62.8° 55.9° - - -
3/29 5:20am 4 3 G 7 60° 16% - - 14° 62.1° 55.9° - - -
3/29 5:10am 343 3 G 5 61° 15% - - 13° 62.1° 55.9° - - -
3/29 5:00am 80 2 G 6 60° 15% - - 13° 62.1° 55.9° - - -
3/29 4:50am 75 4 G 6 59° 16% - - 14° 62.1° 55.9° - - -
3/29 4:40am 113 3 G 5 59° 17% - - 14° 62.1° 55.9° - - -
3/29 4:30am 118 5 G 7 58° 18% - - 15° 62.1° 55.9° - - -
3/29 4:20am 104 5 G 7 58° 18% - - 15° 62.1° 55.9° - - -
3/29 4:10am 131 5 G 7 59° 17% - - 15° 62.1° 55.9° - - -
3/29 4:00am 164 4 G 6 60° 16% - - 14° 62.1° 55.9° - - -
3/29 3:50am 141 3 G 7 60° 17% - - 15° 62.1° 55.9° - - -
3/29 3:40am 148 6 G 15 61° 16% - - 14° 62.1° 55.9° - - -
3/29 3:30am 99 7 G 17 61° 16% - - 14° 62.1° 55.9° - - -
3/29 3:20am 101 8 G 17 61° 16% - - 14° 61.9° 55.9° - - -
3/29 3:10am 113 6 G 14 59° 19% - - 17° 61.9° 55.9° - - -
3/29 3:00am 87 7 G 13 61° 15% - - 13° 61.9° 55.9° - - -
3/29 2:50am 68 8 G 12 61° 15% - - 13° 61.9° 55.9° - - -
3/29 2:40am 84 9 G 14 60° 16% - - 14° 61.4° 55.9° - - -
3/29 2:30am 86 8 G 15 59° 17% - - 14° 60.7° 55.9° - - -
3/29 2:20am 81 7 G 9 60° 16% - - 14° 60.7° 55.9° - - -
3/29 2:10am 78 6 G 11 59° 17% - - 14° 60° 55.9° - - -
3/29 2:00am 76 7 G 11 59° 17% - - 14° 59.9° 55.9° - - -
3/29 1:50am 72 7 G 11 59° 18% - - 15° 59.9° 55.9° - - -
3/29 1:40am 94 6 G 12 58° 18% - - 15° 59.9° 55.9° - - -
3/29 1:30am 120 3 G 6 58° 18% - - 15° 59.9° 55.9° - - -
3/29 1:20am 118 4 G 7 59° 18% - - 15° 59.9° 55.9° - - -
3/29 1:10am 85 3 G 5 58° 18% - - 15° 59.9° 55.9° - - -
3/29 1:00am 79 5 G 8 57° 19% - - 16° 59.9° 55.9° - - -
3/29 12:50am 56 5 G 7 57° 19% - - 16° 59.9° 55.9° - - -
3/29 12:40am 59 7 G 9 57° 21% - - 17° 59.9° 55.9° - - -
3/29 12:30am 68 6 G 12 57° 21% - - 17° 59.9° 55.9° - - -
3/29 12:20am 112 4 G 8 58° 19% - - 16° 59.9° 57.1° - - -
3/29 12:10am 67 6 G 7 59° 18% - - 16° 59.9° 58.2° - - -
3/29 12:00am 72 5 G 7 58° 20% - - 17° 66° 43.3° - - -
3/28 11:50pm 77 5 G 7 57° 23% - - 19° 66° 43.3° - - -
3/28 11:40pm 73 4 G 7 58° 24% - - 21° 66° 43.3° - - -
3/28 11:30pm 81 2 G 3 57° 28% - - 24° 66° 43.3° - - -
3/28 11:20pm 76 3 G 6 56° 30% - - 25° 66° 43.3° - - -
3/28 11:10pm 52 5 G 6 58° 29% - - 26° 66° 43.3° - - -
3/28 11:00pm 5 5 G 7 60° 27% - - 26° 66° 43.3° - - -
3/28 10:50pm 7 5 G 7 60° 27% - - 26° 66° 43.3° - - -
3/28 10:40pm 30 6 G 7 58° 31% - - 28° 66° 43.3° - - -
3/28 10:30pm 32 6 G 8 58° 32% - - 28° 66° 43.3° - - -
3/28 10:20pm 38 7 G 10 58° 33% - - 29° 66° 43.3° - - -
3/28 10:10pm 42 6 G 8 59° 33% - - 30° 66° 43.3° - - -
3/28 10:00pm 39 7 G 8 58° 36% - - 31° 66° 43.3° - - -
3/28 9:50pm 41 7 G 9 57° 42% - - 34° 66° 43.3° - - -
3/28 9:40pm 51 5 G 7 55° 49% - - 37° 66° 43.3° - - -
3/28 9:30pm 63 6 G 9 55° 55% - - 39° 66° 43.3° - - -
3/28 9:20pm 95 3 G 4 53° 63% - - 41° 66° 43.3° - - -
3/28 9:10pm 80 4 G 6 56° 55% - - 40° 66° 43.3° - - -
3/28 9:00pm 15 3 G 7 55° 60% - - 41° 66° 43.3° - - -
3/28 8:50pm 45 2 G 4 55° 60% - - 41° 66° 43.3° - - -
3/28 8:40pm 246 3 G 7 55° 61% - - 41° 66° 43.3° - - -
3/28 8:30pm 41 5 G 7 55° 58% - - 41° 66° 43.3° - - -
3/28 8:20pm 288 3 G 7 55° 61% - - 42° 66° 43.3° - - -
3/28 8:10pm 44 6 G 7 55° 60% - - 42° 66° 43.3° - - -
3/28 8:00pm 48 4 G 6 55° 62% - - 42° 66° 43.3° - - -
3/28 7:50pm 61 5 G 7 55° 63% - - 42° 66° 43.3° - - -
3/28 7:40pm 141 1 G 3 55° 60% - - 42° 66° 43.3° - - -
3/28 7:30pm 353 1 G 2 55° 60% - - 42° 66° 43.3° - - -
3/28 7:20pm 254 3 G 5 55° 60% - - 42° 66° 43.3° - - -
3/28 7:10pm 262 4 G 5 56° 58% - - 42° 66° 43.3° - - -
3/28 7:00pm 268 4 G 6 57° 56% - - 42° 66° 43.3° - - -
3/28 6:50pm 285 3 G 5 58° 54% - - 42° 66° 43.3° - - -
3/28 6:40pm 272 5 G 9 59° 52% - - 41° 66° 43.3° - - -
3/28 6:30pm 279 5 G 8 60° 48% - - 40° 66° 43.3° - - -
3/28 6:20pm 266 5 G 9 60° 49% - - 41° 66° 43.3° - - -
3/28 6:10pm 258 7 G 11 60° 48% - - 41° 66° 43.3° - - -
3/28 6:00pm 260 6 G 9 61° 48% - - 41° 66° 43.3° - - -
3/28 5:50pm 260 7 G 12 61° 48% - - 41° 66° 43.3° - - -
3/28 5:40pm 273 8 G 12 61° 47% - - 41° 66° 43.3° - - -
3/28 5:30pm 256 8 G 12 62° 48% - - 42° 66° 43.3° - - -
3/28 5:20pm 258 11 G 17 62° 49% - - 42° 66° 43.3° - - -
3/28 5:10pm 267 8 G 14 63° 45% - - 42° 66° 43.3° - - -
3/28 5:00pm 266 7 G 12 63° 45% - - 41° 66° 43.3° - - -
3/28 4:50pm 257 8 G 12 63° 42% - - 40° 66° 43.3° - - -
3/28 4:40pm 263 7 G 14 64° 39% - - 38° 66° 43.3° - - -
3/28 4:30pm 261 7 G 12 64° 38% - - 38° 66° 43.3° - - -
3/28 4:20pm 264 8 G 13 64° 37% - - 37° 66° 43.3° - - -
3/28 4:10pm 270 6 G 10 65° 35% - - 37° 66° 43.3° - - -
3/28 4:00pm 244 8 G 13 64° 35% - - 36° 66° 43.3° - - -
3/28 3:50pm 262 8 G 13 64° 34% - - 35° 66° 43.3° - - -
3/28 3:40pm 263 7 G 12 64° 33% - - 35° 66° 43.3° - - -
3/28 3:30pm 261 5 G 10 65° 33% - - 35° 66° 43.3° - - -
3/28 3:20pm 288 6 G 11 64° 32% - - 34° 65.8° 43.3° - - -
3/28 3:10pm 270 4 G 11 64° 32% - - 34° 65.4° 43.3° - - -
3/28 3:00pm 234 4 G 8 64° 32% - - 34° 65° 43.3° - - -
3/28 2:50pm 226 5 G 11 64° 33% - - 34° 64.9° 43.3° - - -
3/28 2:40pm 237 6 G 12 63° 33% - - 34° 64.9° 43.3° - - -
3/28 2:30pm 222 6 G 11 63° 34% - - 34° 64.2° 43.3° - - -
3/28 2:20pm 244 4 G 10 63° 34% - - 34° 63.7° 43.3° - - -
3/28 2:10pm 278 5 G 11 62° 34% - - 34° 63.7° 43.3° - - -
3/28 2:00pm 283 5 G 13 62° 35% - - 34° 62.9° 43.3° - - -
3/28 1:50pm 264 6 G 13 62° 36% - - 34° 62.9° 43.3° - - -
3/28 1:40pm 234 7 G 12 62° 36% - - 34° 62.9° 43.3° - - -
3/28 1:30pm 237 6 G 13 61° 36% - - 34° 62.9° 43.3° - - -
3/28 1:20pm 278 7 G 12 62° 35% - - 34° 62.9° 43.3° - - -
3/28 1:10pm 282 7 G 13 61° 33% - - 32° 62.9° 43.3° - - -
3/28 1:00pm 260 5 G 11 61° 33% - - 31° 61.9° 43.3° - - -
3/28 12:50pm 280 7 G 10 61° 32% - - 31° 61.9° 43.3° - - -
3/28 12:40pm 278 7 G 12 60° 34% - - 32° 61.3° 43.3° - - -
3/28 12:30pm 263 7 G 11 60° 33% - - 31° 61.3° 43.3° - - -
3/28 12:20pm 266 7 G 10 60° 34% - - 31° 61.2° 43.3° - - -
3/28 12:10pm 280 8 G 12 60° 35% - - 33° 61.2° 43.3° - - -
3/28 12:00pm 278 6 G 11 60° 31% - - 29° 61.2° 43.3° - - -
3/28 11:50am 285 6 G 10 60° 29% - - 27° 61.2° 43.3° - - -
3/28 11:40am 268 5 G 9 60° 28% - - 27° 61.2° 43.3° - - -
3/28 11:30am 287 7 G 11 59° 30% - - 27° 61.2° 43.3° - - -
3/28 11:20am 289 6 G 9 60° 31% - - 29° 61.2° 43.3° - - -
3/28 11:10am 273 5 G 10 60° 31% - - 29° 61.2° 43.3° - - -
3/28 11:00am 268 5 G 8 59° 28% - - 26° 60.3° 43.3° - - -
3/28 10:50am 287 5 G 9 59° 30% - - 28° 60.3° 43.3° - - -
3/28 10:40am 278 5 G 9 59° 28% - - 26° 60.3° 43.3° - - -
3/28 10:30am 244 5 G 8 58° 28% - - 25° 59.7° 43.3° - - -
3/28 10:20am 269 5 G 9 58° 30% - - 27° 59.7° 43.3° - - -
3/28 10:10am 253 6 G 9 58° 30% - - 27° 59.7° 43.3° - - -
3/28 10:00am 252 6 G 10 57° 35% - - 30° 59.7° 43.3° - - -
3/28 9:50am 258 6 G 9 57° 34% - - 30° 59.7° 43.3° - - -
3/28 9:40am 263 4 G 7 57° 33% - - 29° 59.7° 43.3° - - -
3/28 9:30am 262 2 G 5 59° 28% - - 25° 59.7° 43.3° - - -
3/28 9:20am 141 2 G 5 59° 24% - - 22° 59.7° 43.3° - - -
3/28 9:10am 96 4 G 9 58° 24% - - 21° 58.3° 43.3° - - -
3/28 9:00am 134 3 G 7 57° 27% - - 23° 57.4° 43.3° - - -
3/28 8:50am 240 1 G 4 56° 26% - - 22° 56.8° 43.3° - - -
3/28 8:40am 209 0 G 1 55° 28% - - 23° 56.1° 43.3° - - -
3/28 8:30am 164 2 G 5 54° 32% - - 24° 54.7° 43.3° - - -
3/28 8:20am 161 1 G 5 54° 33% - - 26° 54.7° 43.3° - - -
3/28 8:10am 92 1 G 3 52° 34% - - 24° 53.3° 43.3° - - -
3/28 8:00am 94 3 G 6 50° 40% - - 27° 52.6° 43.3° - - -
3/28 7:50am 71 5 G 7 48° 45% - - 28° 52.6° 43.3° - - -
3/28 7:40am 79 5 G 7 48° 45% - - 28° 52.6° 43.3° - - -
3/28 7:30am 66 5 G 6 46° 47% - - 27° 52.6° 43.3° - - -
3/28 7:20am 75 4 G 7 46° 45% - - 26° 52.6° 43.3° - - -
3/28 7:10am 62 3 G 7 45° 48% - - 26° 52.6° 43.3° - - -
3/28 7:00am 200 3 G 10 44° 50% - - 27° 52.6° 43.3° - - -
3/28 6:50am 219 2 G 11 49° 32% - - 21° 52.6° 44.7° - - -
3/28 6:40am 344 2 G 3 52° 27% - - 19° 52.6° 45.1° - - -
3/28 6:30am 192 1 G 3 49° 32% - - 20° 52.1° 45.1° - - -
3/28 6:20am 20 2 G 6 51° 28% - - 19° 52.1° 45.1° - - -
3/28 6:10am 10 5 G 8 51° 30% - - 20° 52.1° 45.1° - - -
3/28 6:00am 317 3 G 4 50° 33% - - 22° 50.9° 45.1° - - -